sensor_id;sensor_type;location;lat;lon;timestamp;pressure;altitude;pressure_sealevel;temperature;humidity
59103;BME280;43999;51.660;5.616;2023-02-19T00:00:39;101558.81;;;9.10;100.00
59103;BME280;43999;51.660;5.616;2023-02-19T00:03:10;101565.91;;;9.07;100.00
59103;BME280;43999;51.660;5.616;2023-02-19T00:05:39;101566.88;;;9.04;100.00
59103;BME280;43999;51.660;5.616;2023-02-19T00:08:09;101568.69;;;9.02;100.00
59103;BME280;43999;51.660;5.616;2023-02-19T00:10:38;101562.69;;;9.00;100.00
59103;BME280;43999;51.660;5.616;2023-02-19T00:13:13;101560.97;;;8.99;100.00
59103;BME280;43999;51.660;5.616;2023-02-19T00:15:45;101563.63;;;8.97;100.00
59103;BME280;43999;51.660;5.616;2023-02-19T00:18:15;101555.00;;;8.95;100.00
59103;BME280;43999;51.660;5.616;2023-02-19T00:20:47;101560.28;;;8.94;100.00
59103;BME280;43999;51.660;5.616;2023-02-19T00:23:27;101562.06;;;8.92;100.00
59103;BME280;43999;51.660;5.616;2023-02-19T00:26:03;101562.13;;;8.90;100.00
59103;BME280;43999;51.660;5.616;2023-02-19T00:28:49;101565.72;;;8.88;100.00
59103;BME280;43999;51.660;5.616;2023-02-19T00:31:37;101558.72;;;8.88;100.00
59103;BME280;43999;51.660;5.616;2023-02-19T00:34:06;101570.97;;;8.88;100.00
59103;BME280;43999;51.660;5.616;2023-02-19T00:36:45;101562.41;;;8.83;100.00
59103;BME280;43999;51.660;5.616;2023-02-19T00:39:20;101564.06;;;8.85;100.00
59103;BME280;43999;51.660;5.616;2023-02-19T00:41:51;101571.06;;;8.85;100.00
59103;BME280;43999;51.660;5.616;2023-02-19T00:44:31;101573.72;;;8.83;100.00
59103;BME280;43999;51.660;5.616;2023-02-19T00:47:05;101572.13;;;8.79;100.00
59103;BME280;43999;51.660;5.616;2023-02-19T00:49:41;101565.94;;;8.82;100.00
59103;BME280;43999;51.660;5.616;2023-02-19T00:52:17;101564.38;;;8.76;100.00
59103;BME280;43999;51.660;5.616;2023-02-19T00:54:49;101577.44;;;8.76;100.00
59103;BME280;43999;51.660;5.616;2023-02-19T00:57:24;101579.22;;;8.75;100.00
59103;BME280;43999;51.660;5.616;2023-02-19T00:59:55;101578.44;;;8.72;100.00
59103;BME280;43999;51.660;5.616;2023-02-19T01:02:29;101576.66;;;8.74;100.00
59103;BME280;43999;51.660;5.616;2023-02-19T01:05:01;101567.00;;;8.76;100.00
59103;BME280;43999;51.660;5.616;2023-02-19T01:07:35;101571.06;;;8.85;100.00
59103;BME280;43999;51.660;5.616;2023-02-19T01:10:13;101580.44;;;8.90;100.00
59103;BME280;43999;51.660;5.616;2023-02-19T01:12:41;101582.94;;;8.93;100.00
59103;BME280;43999;51.660;5.616;2023-02-19T01:15:32;101576.81;;;8.94;100.00
59103;BME280;43999;51.660;5.616;2023-02-19T01:18:01;101581.94;;;8.97;100.00
59103;BME280;43999;51.660;5.616;2023-02-19T01:20:28;101586.31;;;8.97;100.00
59103;BME280;43999;51.660;5.616;2023-02-19T01:22:56;101587.16;;;8.97;100.00
59103;BME280;43999;51.660;5.616;2023-02-19T01:25:26;101585.44;;;8.96;100.00
59103;BME280;43999;51.660;5.616;2023-02-19T01:27:57;101585.38;;;8.98;100.00
59103;BME280;43999;51.660;5.616;2023-02-19T01:30:24;101601.13;;;8.96;100.00
59103;BME280;43999;51.660;5.616;2023-02-19T01:32:53;101598.47;;;8.98;100.00
59103;BME280;43999;51.660;5.616;2023-02-19T01:35:22;101604.56;;;8.99;100.00
59103;BME280;43999;51.660;5.616;2023-02-19T01:38:02;101597.63;;;8.97;100.00
59103;BME280;43999;51.660;5.616;2023-02-19T01:40:33;101596.72;;;8.99;100.00
59103;BME280;43999;51.660;5.616;2023-02-19T01:43:05;101597.63;;;8.97;100.00
59103;BME280;43999;51.660;5.616;2023-02-19T01:45:45;101599.44;;;8.95;100.00
59103;BME280;43999;51.660;5.616;2023-02-19T01:51:20;101606.25;;;9.00;100.00
59103;BME280;43999;51.660;5.616;2023-02-19T01:53:54;101615.06;;;8.97;100.00
59103;BME280;43999;51.660;5.616;2023-02-19T01:56:26;101605.47;;;8.97;100.00
59103;BME280;43999;51.660;5.616;2023-02-19T01:58:58;101605.47;;;8.97;100.00
59103;BME280;43999;51.660;5.616;2023-02-19T02:01:37;101603.75;;;8.96;100.00
59103;BME280;43999;51.660;5.616;2023-02-19T02:04:12;101598.47;;;8.98;100.00
59103;BME280;43999;51.660;5.616;2023-02-19T02:07:03;101594.09;;;8.99;100.00
59103;BME280;43999;51.660;5.616;2023-02-19T02:09:55;101604.56;;;8.99;100.00
59103;BME280;43999;51.660;5.616;2023-02-19T02:12:42;101607.97;;;9.01;100.00
59103;BME280;43999;51.660;5.616;2023-02-19T02:15:09;101604.50;;;9.00;100.00
59103;BME280;43999;51.660;5.616;2023-02-19T02:21:28;101592.34;;;8.99;100.00
59103;BME280;43999;51.660;5.616;2023-02-19T02:24:36;101602.78;;;8.99;100.00
59103;BME280;43999;51.660;5.616;2023-02-19T02:30:38;101609.72;;;9.00;100.00
59103;BME280;43999;51.660;5.616;2023-02-19T02:36:21;101614.97;;;9.00;100.00
59103;BME280;43999;51.660;5.616;2023-02-19T02:39:05;101610.63;;;8.99;100.00
59103;BME280;43999;51.660;5.616;2023-02-19T02:41:49;101610.69;;;8.97;100.00
59103;BME280;43999;51.660;5.616;2023-02-19T02:44:44;101608.03;;;8.99;100.00
59103;BME280;43999;51.660;5.616;2023-02-19T02:47:53;101609.94;;;8.94;100.00
59103;BME280;43999;51.660;5.616;2023-02-19T02:56:54;101619.06;;;8.82;100.00
59103;BME280;43999;51.660;5.616;2023-02-19T02:59:33;101614.88;;;8.76;100.00
59103;BME280;43999;51.660;5.616;2023-02-19T03:02:27;101622.72;;;8.76;100.00
59103;BME280;43999;51.660;5.616;2023-02-19T03:05:19;101623.66;;;8.75;100.00
59103;BME280;43999;51.660;5.616;2023-02-19T03:08:27;101624.50;;;8.76;100.00
59103;BME280;43999;51.660;5.616;2023-02-19T03:11:06;101620.94;;;8.78;100.00
59103;BME280;43999;51.660;5.616;2023-02-19T03:14:19;101631.28;;;8.82;100.00
59103;BME280;43999;51.660;5.616;2023-02-19T03:17:21;101632.97;;;8.83;100.00
59103;BME280;43999;51.660;5.616;2023-02-19T03:20:14;101640.91;;;8.79;100.00
59103;BME280;43999;51.660;5.616;2023-02-19T03:22:52;101640.16;;;8.76;100.00
59103;BME280;43999;51.660;5.616;2023-02-19T03:25:30;101635.88;;;8.73;100.00
59103;BME280;43999;51.660;5.616;2023-02-19T03:28:32;101642.88;;;8.73;100.00
59103;BME280;43999;51.660;5.616;2023-02-19T03:31:28;101639.38;;;8.74;100.00
59103;BME280;43999;51.660;5.616;2023-02-19T03:34:07;101628.91;;;8.74;100.00
59103;BME280;43999;51.660;5.616;2023-02-19T03:36:52;101637.50;;;8.77;100.00
59103;BME280;43999;51.660;5.616;2023-02-19T03:39:32;101648.78;;;8.78;100.00
59103;BME280;43999;51.660;5.616;2023-02-19T03:42:56;101645.25;;;8.81;100.00
59103;BME280;43999;51.660;5.616;2023-02-19T03:46:24;101654.03;;;8.78;100.00
59103;BME280;43999;51.660;5.616;2023-02-19T03:49:28;101654.91;;;8.78;100.00
59103;BME280;43999;51.660;5.616;2023-02-19T03:52:23;101659.16;;;8.81;100.00
59103;BME280;43999;51.660;5.616;2023-02-19T03:58:48;101675.59;;;8.85;100.00
59103;BME280;43999;51.660;5.616;2023-02-19T04:02:17;101680.78;;;8.86;100.00
59103;BME280;43999;51.660;5.616;2023-02-19T04:05:18;101675.56;;;8.86;100.00
59103;BME280;43999;51.660;5.616;2023-02-19T04:07:57;101678.06;;;8.89;100.00
59103;BME280;43999;51.660;5.616;2023-02-19T04:10:39;101676.41;;;8.87;100.00
59103;BME280;43999;51.660;5.616;2023-02-19T04:13:35;101689.38;;;8.90;100.00
59103;BME280;43999;51.660;5.616;2023-02-19T04:16:20;101692.13;;;8.85;100.00
59103;BME280;43999;51.660;5.616;2023-02-19T04:18:57;101702.44;;;8.90;100.00
59103;BME280;43999;51.660;5.616;2023-02-19T04:21:31;101691.19;;;8.88;100.00
59103;BME280;43999;51.660;5.616;2023-02-19T04:24:08;101706.81;;;8.89;100.00
59103;BME280;43999;51.660;5.616;2023-02-19T04:26:44;101705.94;;;8.89;100.00
59103;BME280;43999;51.660;5.616;2023-02-19T04:29:15;101702.38;;;8.91;100.00
59103;BME280;43999;51.660;5.616;2023-02-19T04:31:44;101715.44;;;8.91;100.00
59103;BME280;43999;51.660;5.616;2023-02-19T04:34:19;101718.06;;;8.91;100.00
59103;BME280;43999;51.660;5.616;2023-02-19T04:36:47;101709.53;;;8.86;100.00
59103;BME280;43999;51.660;5.616;2023-02-19T04:39:15;101716.59;;;8.83;100.00
59103;BME280;43999;51.660;5.616;2023-02-19T04:41:45;101728.03;;;8.80;100.00
59103;BME280;43999;51.660;5.616;2023-02-19T04:44:17;101725.56;;;8.75;100.00
59103;BME280;43999;51.660;5.616;2023-02-19T04:46:47;101735.03;;;8.78;100.00
59103;BME280;43999;51.660;5.616;2023-02-19T04:49:33;101734.34;;;8.73;100.00
59103;BME280;43999;51.660;5.616;2023-02-19T04:52:02;101750.00;;;8.73;100.00
59103;BME280;43999;51.660;5.616;2023-02-19T04:54:32;101745.03;;;8.65;100.00
59103;BME280;43999;51.660;5.616;2023-02-19T04:57:06;101755.63;;;8.60;100.00
59103;BME280;43999;51.660;5.616;2023-02-19T04:59:49;101763.66;;;8.54;100.00
59103;BME280;43999;51.660;5.616;2023-02-19T05:02:29;101767.44;;;8.44;100.00
59103;BME280;43999;51.660;5.616;2023-02-19T05:04:59;101772.81;;;8.38;100.00
59103;BME280;43999;51.660;5.616;2023-02-19T05:07:32;101776.44;;;8.34;100.00
59103;BME280;43999;51.660;5.616;2023-02-19T05:10:00;101777.44;;;8.28;100.00
59103;BME280;43999;51.660;5.616;2023-02-19T05:12:36;101780.09;;;8.26;100.00
59103;BME280;43999;51.660;5.616;2023-02-19T05:15:07;101781.09;;;8.22;100.00
59103;BME280;43999;51.660;5.616;2023-02-19T05:17:44;101796.78;;;8.21;100.00
59103;BME280;43999;51.660;5.616;2023-02-19T05:20:36;101789.00;;;8.19;100.00
59103;BME280;43999;51.660;5.616;2023-02-19T05:23:06;101785.72;;;8.13;100.00
59103;BME280;43999;51.660;5.616;2023-02-19T05:25:42;101793.50;;;8.14;100.00
59103;BME280;43999;51.660;5.616;2023-02-19T05:28:13;101784.88;;;8.12;100.00
59103;BME280;43999;51.660;5.616;2023-02-19T05:30:53;101783.25;;;8.08;100.00
59103;BME280;43999;51.660;5.616;2023-02-19T05:33:26;101779.00;;;8.04;100.00
59103;BME280;43999;51.660;5.616;2023-02-19T05:36:04;101791.97;;;8.07;100.00
59103;BME280;43999;51.660;5.616;2023-02-19T05:38:37;101786.84;;;8.04;100.00
59103;BME280;43999;51.660;5.616;2023-02-19T05:43:44;101793.84;;;8.02;100.00
59103;BME280;43999;51.660;5.616;2023-02-19T05:46:18;101795.59;;;8.03;100.00
59103;BME280;43999;51.660;5.616;2023-02-19T05:49:04;101799.00;;;8.05;100.00
59103;BME280;43999;51.660;5.616;2023-02-19T05:51:43;101803.41;;;8.03;100.00
59103;BME280;43999;51.660;5.616;2023-02-19T05:54:16;101797.34;;;8.01;100.00
59103;BME280;43999;51.660;5.616;2023-02-19T05:56:47;101806.06;;;8.01;100.00
59103;BME280;43999;51.660;5.616;2023-02-19T05:59:26;101805.19;;;8.01;100.00
59103;BME280;43999;51.660;5.616;2023-02-19T06:02:11;101801.69;;;8.02;100.00
59103;BME280;43999;51.660;5.616;2023-02-19T06:04:51;101808.72;;;8.00;100.00
59103;BME280;43999;51.660;5.616;2023-02-19T06:07:19;101805.19;;;8.01;100.00
59103;BME280;43999;51.660;5.616;2023-02-19T06:09:49;101812.22;;;7.99;100.00
59103;BME280;43999;51.660;5.616;2023-02-19T06:12:27;101815.66;;;7.99;100.00
59103;BME280;43999;51.660;5.616;2023-02-19T06:14:56;101808.81;;;7.97;100.00
59103;BME280;43999;51.660;5.616;2023-02-19T06:17:27;101815.66;;;7.99;100.00
59103;BME280;43999;51.660;5.616;2023-02-19T06:19:58;101812.22;;;7.99;100.00
59103;BME280;43999;51.660;5.616;2023-02-19T06:22:29;101830.44;;;8.00;100.00
59103;BME280;43999;51.660;5.616;2023-02-19T06:25:00;101830.47;;;7.99;100.00
59103;BME280;43999;51.660;5.616;2023-02-19T06:27:35;101827.91;;;7.97;100.00
59103;BME280;43999;51.660;5.616;2023-02-19T06:30:08;101830.59;;;7.94;100.00
59103;BME280;43999;51.660;5.616;2023-02-19T06:32:37;101837.50;;;7.97;100.00
59103;BME280;43999;51.660;5.616;2023-02-19T06:35:06;101832.34;;;7.95;100.00
59103;BME280;43999;51.660;5.616;2023-02-19T06:37:40;101841.09;;;7.93;100.00
59103;BME280;43999;51.660;5.616;2023-02-19T06:40:09;101857.50;;;7.96;100.00
59103;BME280;43999;51.660;5.616;2023-02-19T06:42:41;101854.97;;;7.93;100.00
59103;BME280;43999;51.660;5.616;2023-02-19T06:45:12;101864.47;;;7.97;100.00
59103;BME280;43999;51.660;5.616;2023-02-19T06:47:41;101865.34;;;7.96;100.00
59103;BME280;43999;51.660;5.616;2023-02-19T06:50:11;101868.78;;;7.98;100.00
59103;BME280;43999;51.660;5.616;2023-02-19T06:52:46;101869.59;;;8.00;100.00
59103;BME280;43999;51.660;5.616;2023-02-19T06:55:14;101865.19;;;8.02;100.00
59103;BME280;43999;51.660;5.616;2023-02-19T06:57:41;101868.53;;;8.07;100.00
59103;BME280;43999;51.660;5.616;2023-02-19T07:00:11;101865.94;;;8.07;100.00
59103;BME280;43999;51.660;5.616;2023-02-19T07:02:42;101870.22;;;8.08;100.00
59103;BME280;43999;51.660;5.616;2023-02-19T07:05:18;101866.81;;;8.06;100.00
59103;BME280;43999;51.660;5.616;2023-02-19T07:07:49;101883.22;;;8.12;100.00
59103;BME280;43999;51.660;5.616;2023-02-19T07:10:22;101886.72;;;8.11;100.00
59103;BME280;43999;51.660;5.616;2023-02-19T07:13:04;101889.25;;;8.14;100.00
59103;BME280;43999;51.660;5.616;2023-02-19T07:15:33;101892.69;;;8.16;100.00
59103;BME280;43999;51.660;5.616;2023-02-19T07:18:03;101899.53;;;8.20;100.00
59103;BME280;43999;51.660;5.616;2023-02-19T07:20:39;101905.56;;;8.22;100.00
59103;BME280;43999;51.660;5.616;2023-02-19T07:23:08;101907.25;;;8.24;100.00
59103;BME280;43999;51.660;5.616;2023-02-19T07:25:41;101908.94;;;8.25;100.00
59103;BME280;43999;51.660;5.616;2023-02-19T07:28:09;101909.75;;;8.29;100.00
59103;BME280;43999;51.660;5.616;2023-02-19T07:30:37;101920.09;;;8.32;100.00
59103;BME280;43999;51.660;5.616;2023-02-19T07:33:13;101928.78;;;8.33;100.00
59103;BME280;43999;51.660;5.616;2023-02-19T07:35:49;101927.16;;;8.29;100.00
59103;BME280;43999;51.660;5.616;2023-02-19T07:38:22;101940.19;;;8.29;100.00
59103;BME280;43999;51.660;5.616;2023-02-19T07:41:00;101939.50;;;8.22;100.00
59103;BME280;43999;51.660;5.616;2023-02-19T07:43:36;101949.22;;;8.17;100.00
59103;BME280;43999;51.660;5.616;2023-02-19T07:46:11;101948.50;;;8.10;100.00
59103;BME280;43999;51.660;5.616;2023-02-19T07:49:03;101956.41;;;8.07;100.00
59103;BME280;43999;51.660;5.616;2023-02-19T07:51:52;101971.38;;;8.00;100.00
59103;BME280;43999;51.660;5.616;2023-02-19T07:54:30;101974.81;;;8.02;100.00
59103;BME280;43999;51.660;5.616;2023-02-19T07:57:06;101974.00;;;8.00;100.00
59103;BME280;43999;51.660;5.616;2023-02-19T07:59:46;101981.91;;;7.97;100.00
59103;BME280;43999;51.660;5.616;2023-02-19T08:02:19;101992.38;;;7.96;100.00
59103;BME280;43999;51.660;5.616;2023-02-19T08:05:07;101988.94;;;7.95;100.00
59103;BME280;43999;51.660;5.616;2023-02-19T08:07:37;101990.66;;;7.95;100.00
59103;BME280;43999;51.660;5.616;2023-02-19T08:10:16;101992.47;;;7.93;100.00
59103;BME280;43999;51.660;5.616;2023-02-19T08:13:32;101994.22;;;7.92;100.00
59103;BME280;43999;51.660;5.616;2023-02-19T08:16:17;102006.31;;;7.95;100.00
59103;BME280;43999;51.660;5.616;2023-02-19T08:19:10;101999.28;;;7.98;100.00
59103;BME280;43999;51.660;5.616;2023-02-19T08:21:42;102004.50;;;7.98;100.00
59103;BME280;43999;51.660;5.616;2023-02-19T08:24:17;102014.94;;;7.98;100.00
59103;BME280;43999;51.660;5.616;2023-02-19T08:26:53;102019.22;;;8.01;100.00
59103;BME280;43999;51.660;5.616;2023-02-19T08:29:31;102005.38;;;7.99;100.00
59103;BME280;43999;51.660;5.616;2023-02-19T08:32:04;102005.31;;;8.00;100.00
59103;BME280;43999;51.660;5.616;2023-02-19T08:34:39;102009.63;;;8.03;100.00
59103;BME280;43999;51.660;5.616;2023-02-19T08:37:08;102009.53;;;8.06;100.00
59103;BME280;43999;51.660;5.616;2023-02-19T08:39:46;102007.81;;;8.05;100.00
59103;BME280;43999;51.660;5.616;2023-02-19T08:42:28;102017.41;;;8.04;100.00
59103;BME280;43999;51.660;5.616;2023-02-19T08:44:57;102016.50;;;8.05;100.00
59103;BME280;43999;51.660;5.616;2023-02-19T08:47:30;102028.63;;;8.08;100.00
59103;BME280;43999;51.660;5.616;2023-02-19T08:50:15;102033.84;;;8.08;100.00
59103;BME280;43999;51.660;5.616;2023-02-19T08:53:02;102033.00;;;8.07;100.00
59103;BME280;43999;51.660;5.616;2023-02-19T08:55:40;102033.03;;;8.06;100.00
59103;BME280;43999;51.660;5.616;2023-02-19T08:58:11;102042.59;;;8.05;100.00
59103;BME280;43999;51.660;5.616;2023-02-19T09:00:44;102046.09;;;8.06;100.00
59103;BME280;43999;51.660;5.616;2023-02-19T09:03:39;102050.44;;;8.05;100.00
59103;BME280;43999;51.660;5.616;2023-02-19T09:06:33;102056.53;;;8.06;100.00
59103;BME280;43999;51.660;5.616;2023-02-19T09:09:06;102044.44;;;8.02;100.00
59103;BME280;43999;51.660;5.616;2023-02-19T09:11:51;102051.31;;;8.06;100.00
59103;BME280;43999;51.660;5.616;2023-02-19T09:14:25;102055.69;;;8.04;100.00
59103;BME280;43999;51.660;5.616;2023-02-19T09:16:55;102047.91;;;8.02;100.00
59103;BME280;43999;51.660;5.616;2023-02-19T09:19:51;102053.19;;;7.99;100.00
59103;BME280;43999;51.660;5.616;2023-02-19T09:23:51;102047.91;;;8.02;100.00
59103;BME280;43999;51.660;5.616;2023-02-19T09:26:24;102053.09;;;8.04;100.00
59103;BME280;43999;51.660;5.616;2023-02-19T09:29:10;102058.19;;;8.08;100.00
59103;BME280;43999;51.660;5.616;2023-02-19T09:31:58;102059.97;;;8.08;100.00
59103;BME280;43999;51.660;5.616;2023-02-19T09:34:32;102065.22;;;8.06;100.00
59103;BME280;43999;51.660;5.616;2023-02-19T09:37:08;102067.75;;;8.10;100.00
59103;BME280;43999;51.660;5.616;2023-02-19T09:40:00;102056.31;;;8.15;100.00
59103;BME280;43999;51.660;5.616;2023-02-19T09:42:40;102060.72;;;8.12;100.00
59103;BME280;43999;51.660;5.616;2023-02-19T09:45:26;102078.19;;;8.10;100.00
59103;BME280;43999;51.660;5.616;2023-02-19T09:47:58;102077.34;;;8.09;100.00
59103;BME280;43999;51.660;5.616;2023-02-19T09:50:38;102086.88;;;8.10;100.00
59103;BME280;43999;51.660;5.616;2023-02-19T09:53:25;102110.31;;;8.13;100.00
59103;BME280;43999;51.660;5.616;2023-02-19T09:55:58;102120.69;;;8.16;100.00
59103;BME280;43999;51.660;5.616;2023-02-19T09:58:39;102118.03;;;8.18;100.00
59103;BME280;43999;51.660;5.616;2023-02-19T10:01:18;102123.22;;;8.19;100.00
59103;BME280;43999;51.660;5.616;2023-02-19T10:04:01;102123.25;;;8.18;100.00
59103;BME280;43999;51.660;5.616;2023-02-19T10:06:37;102137.06;;;8.23;100.00
59103;BME280;43999;51.660;5.616;2023-02-19T10:09:25;102148.31;;;8.26;100.00
59103;BME280;43999;51.660;5.616;2023-02-19T10:12:00;102142.94;;;8.33;100.00
59103;BME280;43999;51.660;5.616;2023-02-19T10:14:50;102152.28;;;8.43;100.00
59103;BME280;43999;51.660;5.616;2023-02-19T10:17:30;102157.28;;;8.54;100.00
59103;BME280;43999;51.660;5.616;2023-02-19T10:20:17;102155.22;;;8.67;100.00
59103;BME280;43999;51.660;5.616;2023-02-19T10:23:03;102162.06;;;8.72;100.00
59103;BME280;43999;51.660;5.616;2023-02-19T10:26:10;102173.28;;;8.76;100.00
59103;BME280;43999;51.660;5.616;2023-02-19T10:28:55;102167.88;;;8.84;100.00
59103;BME280;43999;51.660;5.616;2023-02-19T10:31:37;102167.59;;;8.94;100.00
59103;BME280;43999;51.660;5.616;2023-02-19T10:34:22;102180.53;;;8.99;100.00
59103;BME280;43999;51.660;5.616;2023-02-19T10:36:55;102178.75;;;9.01;100.00
59103;BME280;43999;51.660;5.616;2023-02-19T10:39:45;102192.56;;;9.06;100.00
59103;BME280;43999;51.660;5.616;2023-02-19T10:42:21;102187.06;;;9.17;100.00
59103;BME280;43999;51.660;5.616;2023-02-19T10:45:03;102194.97;;;9.47;100.00
59103;BME280;43999;51.660;5.616;2023-02-19T10:47:35;102191.22;;;9.56;100.00
59103;BME280;43999;51.660;5.616;2023-02-19T10:50:04;102213.81;;;9.60;100.00
59103;BME280;43999;51.660;5.616;2023-02-19T10:52:34;102218.22;;;9.58;100.00
59103;BME280;43999;51.660;5.616;2023-02-19T10:55:43;102213.22;;;9.50;100.00
59103;BME280;43999;51.660;5.616;2023-02-19T10:58:25;102223.78;;;9.45;100.00
59103;BME280;43999;51.660;5.616;2023-02-19T11:01:32;102202.91;;;9.44;100.00
59103;BME280;43999;51.660;5.616;2023-02-19T11:04:16;102210.63;;;9.48;100.00
59103;BME280;43999;51.660;5.616;2023-02-19T11:06:51;102206.19;;;9.50;100.00
59103;BME280;43999;51.660;5.616;2023-02-19T11:09:33;102207.13;;;9.48;100.00
59103;BME280;43999;51.660;5.616;2023-02-19T11:12:10;102204.56;;;9.46;100.00
59103;BME280;43999;51.660;5.616;2023-02-19T11:15:22;102200.94;;;9.52;100.00
59103;BME280;43999;51.660;5.616;2023-02-19T11:18:27;102203.00;;;9.72;100.00
59103;BME280;43999;51.660;5.616;2023-02-19T11:21:25;102203.09;;;9.99;100.00
59103;BME280;43999;51.660;5.616;2023-02-19T11:24:04;102195.75;;;10.12;100.00
59103;BME280;43999;51.660;5.616;2023-02-19T11:26:52;102185.59;;;10.29;100.00
59103;BME280;43999;51.660;5.616;2023-02-19T11:29:45;102187.06;;;10.39;100.00
59103;BME280;43999;51.660;5.616;2023-02-19T11:33:34;102189.69;;;10.39;100.00
59103;BME280;43999;51.660;5.616;2023-02-19T11:36:34;102186.53;;;10.27;100.00
59103;BME280;43999;51.660;5.616;2023-02-19T11:39:49;102188.16;;;10.02;100.00
59103;BME280;43999;51.660;5.616;2023-02-19T11:50:38;102204.53;;;9.48;100.00
59103;BME280;43999;51.660;5.616;2023-02-19T11:56:32;102209.19;;;9.37;100.00
59103;BME280;43999;51.660;5.616;2023-02-19T12:00:11;102207.31;;;9.42;100.00
59103;BME280;43999;51.660;5.616;2023-02-19T12:03:54;102211.47;;;9.49;100.00
59103;BME280;43999;51.660;5.616;2023-02-19T12:19:12;102213.59;;;9.67;100.00
59103;BME280;43999;51.660;5.616;2023-02-19T12:23:10;102209.16;;;9.69;100.00
59103;BME280;43999;51.660;5.616;2023-02-19T12:30:39;102197.72;;;9.74;100.00
59103;BME280;43999;51.660;5.616;2023-02-19T12:34:17;102208.34;;;9.67;100.00
59103;BME280;43999;51.660;5.616;2023-02-19T12:41:19;102211.47;;;9.49;100.00
59103;BME280;43999;51.660;5.616;2023-02-19T12:44:51;102213.22;;;9.50;100.00
59103;BME280;43999;51.660;5.616;2023-02-19T12:47:38;102201.66;;;9.57;100.00
59103;BME280;43999;51.660;5.616;2023-02-19T12:51:14;102207.28;;;9.75;100.00
59103;BME280;43999;51.660;5.616;2023-02-19T12:54:39;102207.16;;;9.79;100.00
59103;BME280;43999;51.660;5.616;2023-02-19T12:57:32;102215.06;;;9.78;100.00
59103;BME280;43999;51.660;5.616;2023-02-19T13:00:37;102210.94;;;9.69;100.00
59103;BME280;43999;51.660;5.616;2023-02-19T13:04:13;102222.50;;;9.60;100.00
59103;BME280;43999;51.660;5.616;2023-02-19T13:07:43;102231.41;;;9.55;100.00
59103;BME280;43999;51.660;5.616;2023-02-19T13:11:53;102240.13;;;9.54;100.00
59103;BME280;43999;51.660;5.616;2023-02-19T13:18:00;102252.69;;;9.41;100.00
59103;BME280;43999;51.660;5.616;2023-02-19T13:20:50;102253.66;;;9.37;100.00
59103;BME280;43999;51.660;5.616;2023-02-19T13:23:47;102252.91;;;9.33;100.00
59103;BME280;43999;51.660;5.616;2023-02-19T13:27:25;102253.00;;;9.28;100.00
59103;BME280;43999;51.660;5.616;2023-02-19T13:31:32;102261.06;;;9.21;100.00
59103;BME280;43999;51.660;5.616;2023-02-19T13:39:03;102278.78;;;9.09;100.00
59103;BME280;43999;51.660;5.616;2023-02-19T13:41:50;102281.56;;;9.03;100.00
59103;BME280;43999;51.660;5.616;2023-02-19T13:44:55;102279.84;;;9.01;100.00
59103;BME280;43999;51.660;5.616;2023-02-19T13:48:47;102288.69;;;8.95;100.00
59103;BME280;43999;51.660;5.616;2023-02-19T13:55:54;102293.25;;;8.87;100.00
59103;BME280;43999;51.660;5.616;2023-02-19T13:59:35;102290.75;;;8.82;100.00
59103;BME280;43999;51.660;5.616;2023-02-19T14:03:24;102282.25;;;8.74;100.00
59103;BME280;43999;51.660;5.616;2023-02-19T14:06:29;102284.81;;;8.75;100.00
59103;BME280;43999;51.660;5.616;2023-02-19T14:09:55;102297.09;;;8.70;100.00
59103;BME280;43999;51.660;5.616;2023-02-19T14:12:35;102301.59;;;8.65;100.00
59103;BME280;43999;51.660;5.616;2023-02-19T14:15:47;102310.41;;;8.59;100.00
59103;BME280;43999;51.660;5.616;2023-02-19T14:18:44;102306.16;;;8.55;100.00
59103;BME280;43999;51.660;5.616;2023-02-19T14:21:38;102302.69;;;8.53;100.00
59103;BME280;43999;51.660;5.616;2023-02-19T14:24:15;102304.44;;;8.54;100.00
59103;BME280;43999;51.660;5.616;2023-02-19T14:26:44;102306.09;;;8.58;100.00
59103;BME280;43999;51.660;5.616;2023-02-19T14:29:13;102314.59;;;8.68;100.00
59103;BME280;43999;51.660;5.616;2023-02-19T14:32:05;102311.81;;;8.76;100.00
59103;BME280;43999;51.660;5.616;2023-02-19T14:34:52;102311.59;;;8.85;100.00
59103;BME280;43999;51.660;5.616;2023-02-19T14:37:22;102299.38;;;8.86;100.00
59103;BME280;43999;51.660;5.616;2023-02-19T14:39:56;102303.69;;;8.88;100.00
59103;BME280;43999;51.660;5.616;2023-02-19T14:42:27;102300.25;;;8.86;100.00
59103;BME280;43999;51.660;5.616;2023-02-19T14:45:05;102305.53;;;8.83;100.00
59103;BME280;43999;51.660;5.616;2023-02-19T14:47:37;102301.31;;;8.77;100.00
59103;BME280;43999;51.660;5.616;2023-02-19T14:50:29;102298.88;;;8.70;100.00
59103;BME280;43999;51.660;5.616;2023-02-19T14:53:04;102297.25;;;8.64;100.00
59103;BME280;43999;51.660;5.616;2023-02-19T14:55:38;102287.84;;;8.57;100.00
59103;BME280;43999;51.660;5.616;2023-02-19T14:58:26;102288.75;;;8.54;100.00
59103;BME280;43999;51.660;5.616;2023-02-19T15:01:26;102287.97;;;8.51;100.00
59103;BME280;43999;51.660;5.616;2023-02-19T15:04:23;102281.03;;;8.50;100.00
59103;BME280;43999;51.660;5.616;2023-02-19T15:06:57;102277.66;;;8.45;100.00
59103;BME280;43999;51.660;5.616;2023-02-19T15:09:46;102260.28;;;8.40;100.00
59103;BME280;43999;51.660;5.616;2023-02-19T15:12:25;102255.91;;;8.41;100.00
59103;BME280;43999;51.660;5.616;2023-02-19T15:15:00;102257.72;;;8.39;100.00
59103;BME280;43999;51.660;5.616;2023-02-19T15:17:40;102254.25;;;8.38;100.00
59103;BME280;43999;51.660;5.616;2023-02-19T15:20:14;102247.34;;;8.36;100.00
59103;BME280;43999;51.660;5.616;2023-02-19T15:22:46;102247.38;;;8.34;100.00
59103;BME280;43999;51.660;5.616;2023-02-19T15:25:23;102244.72;;;8.36;100.00
59103;BME280;43999;51.660;5.616;2023-02-19T15:33:29;102270.00;;;8.35;100.00